Time;durP1;ratioP1;P1;durP2;ratioP2;P2;SDS_P1;SDS_P2;PMS_P1;PMS_P2;Temp;Humidity;BMP_temperature;BMP_pressure;BME280_temperature;BME280_humidity;BME280_pressure;Samples;Min_cycle;Max_cycle;Signal;HPM_P1;HPM_P2
2022/01/02 00:00:25;;;;;;;6.10;3.35;;;;;;;10.93;87.02;101598.16;2107384;28;20351;-66
2022/01/02 00:01:26;;;;;;;7.78;3.33;;;;;;;10.95;87.30;101604.19;2098389;28;20063;-66
2022/01/02 00:02:29;;;;;;;6.70;2.95;;;;;;;10.95;87.66;101609.41;2098622;28;20035;-66
2022/01/02 00:03:35;;;;;;;5.20;3.53;;;;;;;10.94;87.55;101592.88;2107063;28;20388;-66
2022/01/02 00:04:39;;;;;;;7.38;3.65;;;;;;;10.90;86.91;101596.50;2107022;28;20047;-67
2022/01/02 00:05:40;;;;;;;5.40;3.72;;;;;;;10.92;87.04;101604.28;2106840;28;20024;-67
2022/01/02 00:06:49;;;;;;;8.07;3.70;;;;;;;10.95;87.39;101593.75;2097952;28;20017;-67
2022/01/02 00:07:58;;;;;;;5.50;3.00;;;;;;;10.95;87.66;101596.34;2098979;28;20078;-66
2022/01/02 00:09:04;;;;;;;6.38;3.63;;;;;;;10.93;87.35;101596.41;2097836;28;20060;-65
2022/01/02 00:10:05;;;;;;;5.95;3.58;;;;;;;10.92;87.64;101604.28;2098655;28;20044;-65
2022/01/02 00:11:06;;;;;;;4.68;3.10;;;;;;;10.94;87.47;101602.47;2097768;28;20409;-66
2022/01/02 00:12:17;;;;;;;4.80;3.00;;;;;;;10.91;88.05;101603.41;2097839;28;20114;-66
2022/01/02 00:13:23;;;;;;;5.80;2.92;;;;;;;10.93;87.07;101611.22;2106898;28;20111;-65
2022/01/02 00:14:28;;;;;;;4.93;3.40;;;;;;;10.98;87.27;101611.91;2097768;28;20024;-66
2022/01/02 00:15:28;;;;;;;5.22;3.10;;;;;;;11.04;86.42;101614.34;2098470;28;20036;-63
2022/01/02 00:16:28;;;;;;;7.93;4.00;;;;;;;11.07;86.88;101621.22;2106904;28;20428;-64
2022/01/02 00:17:30;;;;;;;7.82;3.58;;;;;;;11.05;87.03;101626.47;2097876;28;20501;-65
2022/01/02 00:18:34;;;;;;;6.47;3.00;;;;;;;11.03;86.54;101623.09;2097986;28;20029;-63
2022/01/02 00:19:38;;;;;;;6.47;3.33;;;;;;;11.05;86.86;101625.66;2106838;28;20393;-66
2022/01/02 00:20:48;;;;;;;7.47;3.20;;;;;;;11.05;86.41;101625.66;2097782;28;20043;-66
2022/01/02 00:21:51;;;;;;;5.05;2.97;;;;;;;11.03;86.76;101620.47;2097753;28;20116;-65
2022/01/02 00:22:52;;;;;;;7.90;3.50;;;;;;;11.01;86.78;101614.44;2098062;28;20044;-66
2022/01/02 00:24:02;;;;;;;6.83;3.60;;;;;;;11.00;87.15;101612.72;2106780;28;20511;-66
2022/01/02 00:25:08;;;;;;;7.22;3.55;;;;;;;11.01;86.59;101617.03;2107230;28;20063;-66
2022/01/02 00:26:15;;;;;;;7.80;3.53;;;;;;;11.00;87.25;101614.47;2106812;28;20044;-67
2022/01/02 00:27:18;;;;;;;6.53;2.97;;;;;;;10.99;87.27;101621.47;2107150;28;20016;-67
2022/01/02 00:28:18;;;;;;;7.55;3.88;;;;;;;11.02;86.92;101616.13;2106721;28;20084;-66
2022/01/02 00:29:20;;;;;;;7.43;3.47;;;;;;;11.04;86.33;101610.84;2106815;28;20468;-64
2022/01/02 00:30:21;;;;;;;6.20;3.20;;;;;;;11.03;86.70;101607.41;2106776;28;20392;-67
2022/01/02 00:31:23;;;;;;;8.55;3.38;;;;;;;11.03;86.93;101607.41;2106896;28;20107;-65
2022/01/02 00:32:23;;;;;;;6.60;3.00;;;;;;;11.03;86.71;101602.19;2106699;28;20032;-65
2022/01/02 00:33:25;;;;;;;4.75;3.15;;;;;;;11.04;86.78;101588.22;2097737;28;20051;-65
2022/01/02 00:34:26;;;;;;;5.88;3.30;;;;;;;11.04;87.05;101585.59;2097920;28;20519;-66
2022/01/02 00:35:27;;;;;;;5.47;3.63;;;;;;;11.02;87.44;101584.78;2106784;28;20103;-64
2022/01/02 00:36:27;;;;;;;8.15;3.42;;;;;;;11.02;87.43;101584.78;2106805;28;20491;-65
2022/01/02 00:37:28;;;;;;;5.72;3.90;;;;;;;11.04;87.14;101598.66;2106805;28;20028;-65
2022/01/02 00:38:28;;;;;;;13.20;3.83;;;;;;;11.03;87.55;101599.56;2106946;28;20507;-67
2022/01/02 00:39:28;;;;;;;9.03;3.33;;;;;;;11.01;87.58;101601.38;2106921;28;20031;-66
2022/01/02 00:40:33;;;;;;;4.82;2.88;;;;;;;10.99;88.55;101607.56;2106902;28;20096;-65
2022/01/02 00:41:53;;;;;;;8.52;3.53;;;;;;;10.97;88.54;101596.28;2106724;28;20111;-66
2022/01/02 00:43:03;;;;;;;6.40;3.10;;;;;;;10.95;88.64;101593.75;2106817;28;20102;-65
2022/01/02 00:44:26;;;;;;;6.38;3.65;;;;;;;10.94;89.57;101599.84;2106736;28;20043;-65
2022/01/02 00:45:31;;;;;;;6.72;3.08;;;;;;;10.90;90.27;101600.84;2106629;28;20101;-65
2022/01/02 00:46:34;;;;;;;4.82;2.90;;;;;;;10.87;89.36;101601.81;2106681;28;20069;-65
2022/01/02 00:47:44;;;;;;;5.63;3.05;;;;;;;10.84;90.53;101603.69;2106663;28;20030;-64
2022/01/02 00:48:46;;;;;;;5.90;2.97;;;;;;;10.80;90.24;101600.28;2106764;28;20424;-65
2022/01/02 00:50:03;;;;;;;6.78;2.97;;;;;;;10.79;91.22;101604.69;2106700;28;20102;-64
2022/01/02 00:51:09;;;;;;;4.97;3.28;;;;;;;10.76;91.72;101609.97;2106734;28;20051;-64
2022/01/02 00:52:17;;;;;;;7.82;3.22;;;;;;;10.67;91.87;101597.19;2106637;28;20024;-65
2022/01/02 00:53:20;;;;;;;7.65;3.05;;;;;;;10.62;93.13;101606.94;2097558;28;20051;-64
2022/01/02 00:54:23;;;;;;;7.00;3.28;;;;;;;10.59;93.53;101607.88;2097900;28;20107;-65
2022/01/02 00:55:25;;;;;;;4.70;3.00;;;;;;;10.56;93.39;101587.97;2106631;28;20052;-64
2022/01/02 00:56:28;;;;;;;6.68;3.30;;;;;;;10.54;94.21;101594.97;2106614;28;20027;-64
2022/01/02 00:57:37;;;;;;;7.20;3.42;;;;;;;10.48;94.83;101589.94;2106623;28;20077;-64
2022/01/02 00:58:43;;;;;;;6.05;3.67;;;;;;;10.47;94.44;101588.22;2106779;28;20411;-65
2022/01/02 00:59:57;;;;;;;7.45;3.58;;;;;;;10.44;94.29;101588.31;2106506;28;20027;-63
2022/01/02 01:00:59;;;;;;;5.68;3.22;;;;;;;10.38;95.16;101585.88;2105831;28;20504;-61
2022/01/02 01:02:03;;;;;;;8.68;3.90;;;;;;;10.37;95.61;101581.56;2106038;28;20389;-63
2022/01/02 01:03:08;;;;;;;9.13;3.33;;;;;;;10.33;95.85;101578.16;2106634;28;20020;-64
2022/01/02 01:04:11;;;;;;;7.85;3.10;;;;;;;10.34;95.67;101576.41;2106515;28;20023;-62
2022/01/02 01:05:23;;;;;;;7.70;3.30;;;;;;;10.35;95.45;101578.13;2106688;28;20035;-62
2022/01/02 01:06:25;;;;;;;5.88;3.20;;;;;;;10.35;95.80;101583.34;2106596;28;20024;-63
2022/01/02 01:07:25;;;;;;;8.27;3.38;;;;;;;10.34;95.55;101586.84;2097767;28;20031;-63
2022/01/02 01:08:30;;;;;;;6.30;3.33;;;;;;;10.33;95.78;101577.34;2097730;28;20049;-63
2022/01/02 01:09:32;;;;;;;5.72;3.10;;;;;;;10.30;96.38;101571.28;2106174;28;20115;-64
2022/01/02 01:10:36;;;;;;;6.65;3.50;;;;;;;10.29;96.26;101569.59;2106106;28;20047;-63
2022/01/02 01:11:41;;;;;;;6.40;3.25;;;;;;;10.30;95.82;101576.50;2106600;28;20473;-62
2022/01/02 01:12:41;;;;;;;8.68;3.30;;;;;;;10.26;96.58;101569.66;2106594;28;20020;-63
2022/01/02 01:13:42;;;;;;;6.95;3.22;;;;;;;10.25;96.48;101573.19;2106493;28;20051;-63
2022/01/02 01:14:42;;;;;;;6.53;3.03;;;;;;;10.24;96.88;101574.09;2106517;28;20347;-62
2022/01/02 01:15:43;;;;;;;9.13;3.03;;;;;;;10.23;97.25;101564.53;2106567;28;20028;-62
2022/01/02 01:16:44;;;;;;;6.13;3.67;;;;;;;10.21;97.92;101565.47;2106462;28;20321;-62
2022/01/02 01:17:45;;;;;;;7.28;3.50;;;;;;;10.21;97.43;101570.69;2106609;28;20016;-63
2022/01/02 01:18:45;;;;;;;6.07;3.53;;;;;;;10.19;97.25;101568.13;2106464;28;20133;-64
2022/01/02 01:19:46;;;;;;;6.63;2.57;;;;;;;10.20;97.24;101554.22;2106552;28;20104;-63
2022/01/02 01:20:46;;;;;;;4.40;3.03;;;;;;;10.20;97.83;101551.59;2106514;28;20053;-63
2022/01/02 01:21:46;;;;;;;7.23;4.03;;;;;;;10.19;97.33;101557.69;2106524;28;20108;-64
2022/01/02 01:22:48;;;;;;;6.97;3.10;;;;;;;10.18;97.83;101554.25;2106476;28;20081;-63
2022/01/02 01:23:49;;;;;;;7.32;3.13;;;;;;;10.17;97.78;101559.53;2106341;28;20032;-63
2022/01/02 01:24:49;;;;;;;5.90;3.80;;;;;;;10.16;97.96;101552.56;2106386;28;20047;-63
2022/01/02 01:25:50;;;;;;;4.60;3.28;;;;;;;10.12;98.35;101551.81;2097463;28;20389;-62
2022/01/02 01:26:53;;;;;;;8.77;3.42;;;;;;;10.10;98.93;101560.59;2097585;28;20040;-62
2022/01/02 01:27:54;;;;;;;5.80;2.85;;;;;;;10.09;99.29;101557.13;2106329;28;20346;-63
2022/01/02 01:28:54;;;;;;;10.80;3.53;;;;;;;10.09;99.14;101558.88;2106415;28;20028;-62
2022/01/02 01:29:54;;;;;;;6.80;3.00;;;;;;;10.08;99.00;101559.75;2097393;28;20048;-62
2022/01/02 01:30:56;;;;;;;7.03;3.40;;;;;;;10.09;98.63;101551.06;2097542;28;20385;-62
2022/01/02 01:31:57;;;;;;;6.88;3.58;;;;;;;10.09;98.84;101544.06;2106426;28;20043;-64
2022/01/02 01:32:57;;;;;;;8.63;4.00;;;;;;;10.11;99.08;101549.25;2106475;28;20039;-63
2022/01/02 01:33:57;;;;;;;7.60;3.83;;;;;;;10.09;98.71;101544.06;2106429;28;20070;-63
2022/01/02 01:34:57;;;;;;;7.27;3.53;;;;;;;10.09;98.56;101548.47;2106461;28;20426;-63
2022/01/02 01:35:58;;;;;;;9.20;3.57;;;;;;;10.10;98.60;101553.63;2106442;28;20392;-62
2022/01/02 01:36:58;;;;;;;4.83;3.00;;;;;;;10.11;98.78;101549.25;2106479;28;20054;-63
2022/01/02 01:37:58;;;;;;;5.00;3.70;;;;;;;10.12;98.22;101543.13;2106443;28;20503;-63
2022/01/02 01:38:59;;;;;;;9.83;3.60;;;;;;;10.12;98.77;101545.72;2106454;28;20024;-63
2022/01/02 01:39:59;;;;;;;6.53;3.40;;;;;;;10.11;99.54;101546.66;2106379;28;20028;-63
2022/01/02 01:41:14;;;;;;;6.13;3.13;;;;;;;10.09;99.01;101540.63;2106455;28;20043;-63
2022/01/02 01:42:14;;;;;;;5.18;3.20;;;;;;;10.10;98.98;101537.13;2106452;28;20111;-62
2022/01/02 01:43:14;;;;;;;5.53;3.15;;;;;;;10.11;98.89;101536.22;2097363;28;20509;-62
2022/01/02 01:46:19;;;;;;;5.87;3.60;;;;;;;10.07;100.00;101540.69;2108194;28;20035;-62
2022/01/02 01:47:20;;;;;;;9.57;3.47;;;;;;;10.05;99.73;101527.69;2107993;28;20422;-62
2022/01/02 01:48:20;;;;;;;7.00;3.85;;;;;;;10.08;99.74;101525.88;2108026;28;20047;-63
2022/01/02 01:49:27;;;;;;;6.63;3.50;;;;;;;10.07;99.08;101527.63;2108058;28;20388;-64
2022/01/02 01:50:31;;;;;;;6.13;3.13;;;;;;;10.09;99.36;101523.22;2107990;28;20134;-63
2022/01/02 01:51:31;;;;;;;8.32;3.47;;;;;;;10.10;99.43;101530.16;2108010;28;20538;-62
2022/01/02 01:52:31;;;;;;;7.27;3.40;;;;;;;10.11;98.86;101517.94;2108172;28;20050;-62
2022/01/02 01:53:32;;;;;;;7.60;3.47;;;;;;;10.12;99.31;101517.03;2108072;28;20076;-63
2022/01/02 01:54:32;;;;;;;7.67;3.60;;;;;;;10.10;99.69;101511.03;2108037;28;20030;-62
2022/01/02 01:55:34;;;;;;;9.50;3.80;;;;;;;10.08;99.84;101523.25;2108028;28;20024;-62
2022/01/02 01:56:36;;;;;;;6.70;3.30;;;;;;;10.04;100.00;101518.16;2107976;28;20099;-63
2022/01/02 01:57:40;;;;;;;8.30;3.65;;;;;;;10.00;100.00;101516.53;2108000;28;20035;-62
2022/01/02 01:58:41;;;;;;;6.18;3.10;;;;;;;10.00;100.00;101516.53;2098820;28;20492;-63
2022/01/02 01:59:41;;;;;;;7.53;3.47;;;;;;;9.99;100.00;101514.81;2098885;28;20170;-62
2022/01/02 02:00:42;;;;;;;8.07;3.50;;;;;;;9.99;100.00;101513.97;2107964;28;20024;-63
2022/01/02 02:01:43;;;;;;;7.28;3.80;;;;;;;9.99;100.00;101508.75;2107913;28;20032;-62
2022/01/02 02:02:44;;;;;;;6.60;3.58;;;;;;;10.00;100.00;101506.09;2107856;28;20055;-63
2022/01/02 02:03:45;;;;;;;7.10;3.50;;;;;;;10.02;100.00;101503.44;2107884;28;20465;-62
2022/01/02 02:04:45;;;;;;;5.40;2.90;;;;;;;10.01;99.60;101499.97;2107987;28;20016;-64
2022/01/02 02:05:45;;;;;;;8.97;3.97;;;;;;;10.01;100.00;101507.81;2107880;28;20381;-62
2022/01/02 02:06:46;;;;;;;7.80;4.00;;;;;;;10.00;100.00;101506.09;2107955;28;20024;-62
2022/01/02 02:07:46;;;;;;;9.07;3.75;;;;;;;9.97;100.00;101503.59;2107830;28;20020;-62
2022/01/02 02:08:47;;;;;;;8.13;3.87;;;;;;;9.98;99.96;101502.69;2107852;28;20436;-63
2022/01/02 02:10:11;;;;;;;5.03;3.30;;;;;;;9.98;100.00;101497.47;2107911;28;20036;-62
2022/01/02 02:11:08;;;;;;;10.20;3.60;;;;;;;9.97;100.00;101493.16;2107715;28;20512;-63
2022/01/02 02:12:09;;;;;;;6.13;3.60;;;;;;;9.99;100.00;101493.94;2107810;28;20027;-63
2022/01/02 02:13:09;;;;;;;6.43;3.03;;;;;;;10.01;100.00;101484.34;2107872;28;20411;-63
2022/01/02 02:14:10;;;;;;;11.87;3.93;;;;;;;10.04;100.00;101483.38;2107791;28;20073;-63
2022/01/02 02:15:11;;;;;;;9.20;3.83;;;;;;;10.03;100.00;101487.75;2107882;28;20075;-64
2022/01/02 02:16:12;;;;;;;5.57;3.17;;;;;;;10.07;100.00;101482.44;2098729;28;20036;-63
2022/01/02 02:17:13;;;;;;;7.18;3.92;;;;;;;10.09;100.00;101484.09;2098846;28;20111;-64
2022/01/02 02:18:13;;;;;;;12.63;3.90;;;;;;;10.09;99.81;101480.66;2107771;28;20084;-63
2022/01/02 02:19:13;;;;;;;7.43;3.90;;;;;;;10.11;100.00;101478.84;2107821;28;20102;-63
2022/01/02 02:20:14;;;;;;;4.40;3.03;;;;;;;10.12;100.00;101467.50;2107799;28;20028;-63
2022/01/02 02:21:15;;;;;;;12.05;4.57;;;;;;;10.13;99.86;101474.44;2098746;28;20033;-63
2022/01/02 02:22:15;;;;;;;8.05;3.97;;;;;;;10.16;99.90;101474.31;2098694;28;20048;-63
2022/01/02 02:23:16;;;;;;;8.87;3.77;;;;;;;10.16;99.74;101474.31;2107130;28;20023;-64
2022/01/02 02:24:16;;;;;;;9.53;3.67;;;;;;;10.17;99.67;101465.63;2107695;28;20038;-63
2022/01/02 02:25:18;;;;;;;7.50;3.80;;;;;;;10.16;99.56;101461.28;2107668;28;20024;-63
2022/01/02 02:26:19;;;;;;;9.27;4.38;;;;;;;10.15;99.59;101467.41;2107698;28;20024;-62
2022/01/02 02:27:23;;;;;;;10.63;4.20;;;;;;;10.18;99.53;101462.09;2107686;28;20109;-62
2022/01/02 02:28:26;;;;;;;8.90;4.28;;;;;;;10.21;99.17;101467.22;2107499;28;20647;-64
2022/01/02 02:29:26;;;;;;;8.32;3.63;;;;;;;10.20;99.39;101465.53;2098640;28;20036;-63
2022/01/02 02:30:29;;;;;;;8.40;3.50;;;;;;;10.20;99.53;101460.31;2098710;28;20107;-64
2022/01/02 02:31:30;;;;;;;8.52;3.67;;;;;;;10.20;99.33;101449.88;2098615;28;20037;-62
2022/01/02 02:32:30;;;;;;;11.68;4.30;;;;;;;10.22;99.39;101448.06;2098716;28;20359;-63
2022/01/02 02:33:31;;;;;;;6.97;3.50;;;;;;;10.22;99.68;101447.19;2107668;28;20016;-63
2022/01/02 02:34:31;;;;;;;6.97;3.43;;;;;;;10.20;99.30;101442.06;2107768;28;20469;-63
2022/01/02 02:35:33;;;;;;;11.83;4.00;;;;;;;10.22;99.34;101442.84;2107636;28;20313;-63
2022/01/02 02:36:33;;;;;;;6.55;3.55;;;;;;;10.23;99.19;101439.31;2107575;28;20545;-63
2022/01/02 02:37:33;;;;;;;9.67;4.37;;;;;;;10.24;99.27;101456.72;2098600;28;20024;-63
2022/01/02 02:38:34;;;;;;;8.70;4.30;;;;;;;10.25;99.57;101458.41;2098696;28;20025;-63
2022/01/02 02:39:36;;;;;;;9.73;3.53;;;;;;;10.25;99.40;101458.41;2107751;28;20043;-64
2022/01/02 02:40:37;;;;;;;9.10;4.03;;;;;;;10.24;98.77;101459.31;2107688;28;20039;-63
2022/01/02 02:41:39;;;;;;;11.15;3.47;;;;;;;10.24;99.42;101461.06;2107578;28;20103;-64
2022/01/02 02:42:51;;;;;;;8.95;3.67;;;;;;;10.22;99.41;101463.72;2107645;28;20493;-63
2022/01/02 02:44:00;;;;;;;8.15;3.85;;;;;;;10.23;99.02;101452.38;2107592;28;20408;-63
2022/01/02 02:49:08;;;;;;;7.05;3.55;;;;;;;10.22;99.42;101439.38;2107663;28;20032;-63
2022/01/02 02:50:08;;;;;;;9.53;3.97;;;;;;;10.22;99.68;101432.41;2107556;28;20024;-62
2022/01/02 02:51:11;;;;;;;8.20;3.37;;;;;;;10.22;99.27;101427.19;2107588;28;20026;-63
2022/01/02 02:52:25;;;;;;;7.85;3.40;;;;;;;10.24;98.93;101429.75;2098494;28;20020;-63
2022/01/02 02:53:25;;;;;;;8.75;4.30;;;;;;;10.24;99.53;101425.41;2100568;28;20390;-63
2022/01/02 02:54:30;;;;;;;8.53;3.60;;;;;;;10.25;98.89;101427.09;2107555;28;20086;-64
2022/01/02 02:55:32;;;;;;;11.02;3.30;;;;;;;10.26;99.33;101435.75;2106327;28;20035;-64
2022/01/02 02:56:55;;;;;;;11.07;3.70;;;;;;;10.25;99.28;101431.47;2107443;28;20047;-64
2022/01/02 02:57:58;;;;;;;7.93;4.05;;;;;;;10.22;99.76;101432.41;2107632;28;20024;-64
2022/01/02 02:58:58;;;;;;;10.32;3.97;;;;;;;10.20;99.63;101431.63;2107497;28;20024;-64
2022/01/02 02:59:59;;;;;;;9.10;4.97;;;;;;;10.21;99.27;101430.72;2107533;28;20024;-63
2022/01/02 03:01:00;;;;;;;6.80;4.07;;;;;;;10.22;99.70;101427.19;2098346;28;20114;-63
2022/01/02 03:02:01;;;;;;;9.95;5.70;;;;;;;10.22;100.00;101432.41;2098640;28;20111;-64
2022/01/02 03:03:01;;;;;;;8.95;4.00;;;;;;;10.21;99.70;101430.72;2107550;28;20039;-63
2022/01/02 03:04:01;;;;;;;13.33;4.70;;;;;;;10.21;99.80;101425.50;2107518;28;20023;-64
2022/01/02 03:05:02;;;;;;;9.02;2.83;;;;;;;10.23;100.00;101423.69;2107360;28;20028;-64
2022/01/02 03:06:03;;;;;;;8.80;3.57;;;;;;;10.23;99.94;101430.66;2098457;28;20142;-64
2022/01/02 03:07:04;;;;;;;8.30;3.47;;;;;;;10.23;99.53;101426.28;2098605;28;20040;-63
2022/01/02 03:08:04;;;;;;;9.70;3.67;;;;;;;10.25;99.42;101421.03;2107452;28;20484;-66
2022/01/02 03:09:09;;;;;;;8.63;4.30;;;;;;;10.25;99.88;101427.09;2107488;28;20059;-64
2022/01/02 03:10:10;;;;;;;10.40;4.20;;;;;;;10.24;100.00;101422.81;2107435;28;20016;-64
2022/01/02 03:11:17;;;;;;;12.55;4.10;;;;;;;10.25;99.81;101421.88;2107478;28;20361;-63
2022/01/02 03:12:19;;;;;;;11.98;4.40;;;;;;;10.25;99.57;101415.81;2098339;28;20087;-65
2022/01/02 03:13:19;;;;;;;9.75;4.32;;;;;;;10.24;99.77;101420.19;2090074;28;20056;-63
2022/01/02 03:14:19;;;;;;;7.27;4.23;;;;;;;10.23;100.00;101418.47;2098493;28;20071;-64
2022/01/02 03:15:20;;;;;;;8.80;3.80;;;;;;;10.23;100.00;101421.06;2107287;28;20024;-63
2022/01/02 03:16:20;;;;;;;8.70;3.67;;;;;;;10.25;100.00;101424.50;2107379;28;20020;-63
2022/01/02 03:17:20;;;;;;;9.13;4.03;;;;;;;10.28;100.00;101416.56;2107403;28;20318;-63
2022/01/02 03:18:20;;;;;;;8.73;4.30;;;;;;;10.30;99.72;101419.97;2107409;28;20440;-63
2022/01/02 03:19:21;;;;;;;9.67;4.17;;;;;;;10.31;99.80;101413.00;2107332;28;20042;-63
2022/01/02 03:20:21;;;;;;;7.30;3.47;;;;;;;10.29;99.90;101413.06;2107336;28;20050;-63
2022/01/02 03:21:22;;;;;;;9.33;3.97;;;;;;;10.28;99.84;101411.38;2107398;28;20032;-64
2022/01/02 03:22:22;;;;;;;14.65;4.97;;;;;;;10.29;100.00;101407.84;2098296;28;20080;-64
2022/01/02 03:23:22;;;;;;;9.37;3.73;;;;;;;10.28;100.00;101416.56;2098411;28;20436;-63
2022/01/02 03:24:23;;;;;;;10.47;4.00;;;;;;;10.29;99.90;101423.50;2107295;28;20034;-63
2022/01/02 03:25:23;;;;;;;7.23;4.27;;;;;;;10.31;100.00;101415.63;2107159;28;20500;-63
2022/01/02 03:26:23;;;;;;;10.83;3.40;;;;;;;10.29;100.00;101418.28;2107321;28;20027;-64
2022/01/02 03:27:25;;;;;;;8.80;4.30;;;;;;;10.31;100.00;101415.63;2098297;28;20028;-63
2022/01/02 03:28:25;;;;;;;;;;;;;;;10.31;100.00;101411.25;2098546;28;20053;-63
2022/01/02 03:29:25;;;;;;;9.30;4.13;;;;;;;10.32;100.00;101412.09;2098207;28;19912;-64
2022/01/02 03:30:25;;;;;;;8.83;4.20;;;;;;;10.32;100.00;101414.72;2098197;28;20040;-64
2022/01/02 03:31:26;;;;;;;10.83;4.00;;;;;;;10.31;99.92;101411.25;2098182;28;20079;-63
2022/01/02 03:32:26;;;;;;;7.67;4.20;;;;;;;10.31;100.00;101420.84;2098243;28;20028;-64
2022/01/02 03:33:27;;;;;;;8.03;3.90;;;;;;;10.33;100.00;101418.19;2106984;28;20024;-63
2022/01/02 03:34:27;;;;;;;8.70;4.75;;;;;;;10.33;100.00;101423.41;2107166;28;20108;-65
2022/01/02 03:35:27;;;;;;;11.23;4.33;;;;;;;10.31;100.00;101421.69;2107215;28;20016;-64
2022/01/02 03:36:28;;;;;;;9.93;3.83;;;;;;;10.31;100.00;101424.28;2106721;28;20027;-64
2022/01/02 03:37:29;;;;;;;7.50;3.77;;;;;;;10.29;100.00;101423.50;2106543;28;20023;-64
2022/01/02 03:38:29;;;;;;;12.52;4.18;;;;;;;10.30;100.00;101414.75;2107202;28;20397;-64
2022/01/02 03:39:30;;;;;;;9.38;3.42;;;;;;;10.29;100.00;101418.28;2098285;28;20038;-64
2022/01/02 03:40:30;;;;;;;10.57;4.03;;;;;;;10.29;100.00;101426.09;2098215;28;20023;-64
2022/01/02 03:41:30;;;;;;;11.57;3.83;;;;;;;10.27;100.00;101430.50;2107188;28;20077;-64
2022/01/02 03:42:31;;;;;;;8.53;3.73;;;;;;;10.26;100.00;101428.81;2098116;28;20016;-63
2022/01/02 03:43:31;;;;;;;7.33;3.60;;;;;;;10.25;100.00;101421.03;2098204;28;20035;-63
2022/01/02 03:44:32;;;;;;;13.38;3.97;;;;;;;10.26;100.00;101417.50;2106473;28;20077;-64
2022/01/02 03:45:32;;;;;;;11.07;4.53;;;;;;;10.26;100.00;101420.97;2106589;28;20040;-64
2022/01/02 03:46:33;;;;;;;8.73;3.42;;;;;;;10.25;100.00;101421.88;2107134;28;20464;-64
2022/01/02 03:47:33;;;;;;;6.30;3.88;;;;;;;10.24;100.00;101414.97;2098046;28;20386;-63
2022/01/02 03:48:34;;;;;;;7.07;3.10;;;;;;;10.26;100.00;101401.84;2098124;28;20021;-65
2022/01/02 03:49:35;;;;;;;10.05;3.85;;;;;;;10.29;100.00;101412.19;2107044;28;20024;-63
2022/01/02 03:50:35;;;;;;;7.87;4.37;;;;;;;10.31;100.00;101405.19;2107145;28;20469;-63
2022/01/02 03:51:35;;;;;;;12.93;3.90;;;;;;;10.30;100.00;101409.53;2106859;28;20110;-64
2022/01/02 03:52:36;;;;;;;7.27;3.53;;;;;;;10.30;100.00;101404.31;2107144;28;20043;-64
2022/01/02 03:53:36;;;;;;;8.00;3.78;;;;;;;10.31;100.00;101406.03;2106863;28;20029;-64
2022/01/02 03:54:36;;;;;;;10.87;4.13;;;;;;;10.31;100.00;101406.03;2097998;28;20032;-63
2022/01/02 03:55:38;;;;;;;11.77;4.00;;;;;;;10.35;99.85;101392.88;2098069;28;20454;-64
2022/01/02 03:56:38;;;;;;;;;;;;;;;10.37;99.35;101393.69;2107445;28;20020;-63
2022/01/02 03:57:38;;;;;;;6.22;3.58;;;;;;;10.36;99.87;101391.97;2107077;28;20433;-63
2022/01/02 03:58:38;;;;;;;7.47;3.47;;;;;;;10.34;99.67;101388.56;2097954;28;20035;-63
2022/01/02 03:59:39;;;;;;;9.10;3.90;;;;;;;10.35;99.84;101390.28;2098055;28;20028;-63
2022/01/02 04:00:39;;;;;;;11.37;3.60;;;;;;;10.34;100.00;101388.56;2106941;28;20113;-64
2022/01/02 04:01:39;;;;;;;10.13;3.57;;;;;;;10.30;99.79;101391.28;2106946;28;20102;-64
2022/01/02 04:02:40;;;;;;;7.80;3.60;;;;;;;10.30;100.00;101393.88;2107017;28;20016;-64
2022/01/02 04:03:40;;;;;;;10.52;3.78;;;;;;;10.31;100.00;101382.53;2097920;28;20470;-64
2022/01/02 04:04:41;;;;;;;9.90;3.60;;;;;;;10.34;99.50;101379.00;2098004;28;20049;-64
2022/01/02 04:05:43;;;;;;;10.40;3.80;;;;;;;10.37;99.58;101380.66;2106255;28;20060;-63
2022/01/02 04:06:43;;;;;;;9.07;3.78;;;;;;;10.38;99.20;101374.53;2106527;28;20290;-64
2022/01/02 04:07:44;;;;;;;7.67;3.37;;;;;;;10.37;98.84;101370.22;2106962;28;20047;-63
2022/01/02 04:08:45;;;;;;;10.02;3.63;;;;;;;10.36;99.23;101361.53;2106964;28;20473;-64
2022/01/02 04:09:45;;;;;;;9.17;4.50;;;;;;;10.35;99.45;101367.66;2106940;28;20039;-63
2022/01/02 04:10:45;;;;;;;12.07;3.73;;;;;;;10.35;99.84;101369.41;2106927;28;20048;-64
2022/01/02 04:11:46;;;;;;;9.03;3.53;;;;;;;10.35;100.00;101364.19;2106982;28;20032;-64
2022/01/02 04:12:46;;;;;;;10.68;3.92;;;;;;;10.33;100.00;101356.41;2106943;28;20024;-63
2022/01/02 04:13:46;;;;;;;9.10;3.73;;;;;;;10.35;99.22;101359.84;2106860;28;20442;-63
2022/01/02 04:14:47;;;;;;;12.13;3.83;;;;;;;10.35;99.53;101359.84;2097933;28;20417;-63
2022/01/02 04:15:47;;;;;;;8.63;4.03;;;;;;;10.35;99.92;101358.97;2097963;28;20019;-64
2022/01/02 04:16:47;;;;;;;8.90;4.37;;;;;;;10.36;99.31;101360.66;2097880;28;20021;-63
2022/01/02 04:17:47;;;;;;;8.33;4.00;;;;;;;10.34;99.17;101360.75;2097745;28;20020;-63
2022/01/02 04:18:50;;;;;;;8.93;4.03;;;;;;;10.34;99.46;101365.09;2106201;28;20024;-63
2022/01/02 04:19:51;;;;;;;8.50;3.92;;;;;;;10.35;99.34;101358.97;2107033;28;20486;-63
2022/01/02 04:20:51;;;;;;;6.97;3.55;;;;;;;10.34;99.54;101358.13;2106514;28;20077;-63
2022/01/02 04:21:51;;;;;;;9.65;4.10;;;;;;;10.35;99.42;101356.34;2106814;28;20153;-63
2022/01/02 04:22:52;;;;;;;9.93;3.23;;;;;;;10.33;99.23;101366.84;2106871;28;20016;-63
2022/01/02 04:23:52;;;;;;;8.77;3.80;;;;;;;10.33;99.96;101361.63;2106555;28;20020;-64
2022/01/02 04:24:53;;;;;;;8.82;3.38;;;;;;;10.34;99.60;101360.75;2106104;28;20016;-64
2022/01/02 04:25:53;;;;;;;17.27;4.27;;;;;;;10.33;99.88;101364.22;2106259;28;20016;-64
2022/01/02 04:26:53;;;;;;;6.97;3.87;;;;;;;10.31;99.61;101361.66;2097848;28;20410;-63
2022/01/02 04:27:53;;;;;;;9.53;3.53;;;;;;;10.33;99.77;101368.63;2094375;28;20095;-63
2022/01/02 04:28:54;;;;;;;8.23;4.47;;;;;;;10.31;99.67;101358.22;2097720;28;20039;-64
2022/01/02 04:29:54;;;;;;;9.10;4.33;;;;;;;10.31;99.35;101369.50;2098035;28;20028;-63
2022/01/02 04:30:54;;;;;;;8.25;3.83;;;;;;;10.30;99.26;101366.97;2098555;28;20424;-64
2022/01/02 04:31:55;;;;;;;7.60;3.87;;;;;;;10.28;99.56;101356.59;2098360;28;20021;-63
2022/01/02 04:32:55;;;;;;;9.83;4.20;;;;;;;10.28;99.72;101364.41;2098410;28;20012;-63
2022/01/02 04:33:55;;;;;;;10.10;4.37;;;;;;;10.26;100.00;101355.75;2098512;28;20422;-63
2022/01/02 04:34:55;;;;;;;8.17;3.30;;;;;;;10.24;100.00;101359.34;2098351;28;20228;-64
2022/01/02 04:35:56;;;;;;;10.00;3.80;;;;;;;10.20;100.00;101355.13;2098399;28;20021;-64
2022/01/02 04:36:56;;;;;;;9.33;4.00;;;;;;;10.17;100.00;101356.06;2098367;28;20028;-64
2022/01/02 04:37:56;;;;;;;9.00;3.90;;;;;;;10.14;100.00;101356.16;2098350;28;20104;-64
2022/01/02 04:38:56;;;;;;;10.10;3.73;;;;;;;10.13;100.00;101349.25;2098451;28;20477;-63
2022/01/02 04:39:57;;;;;;;10.90;4.20;;;;;;;10.13;100.00;101354.47;2098380;28;20024;-63
2022/01/02 04:40:57;;;;;;;12.37;4.10;;;;;;;10.12;100.00;101358.81;2098438;28;20020;-64
2022/01/02 04:41:57;;;;;;;6.27;3.90;;;;;;;10.12;100.00;101347.53;2097685;28;20528;-63
2022/01/02 04:42:57;;;;;;;8.07;3.83;;;;;;;10.12;100.00;101350.13;2097791;28;20028;-62
2022/01/02 04:43:58;;;;;;;11.83;4.10;;;;;;;10.09;100.00;101351.09;2098336;28;20020;-62
2022/01/02 04:44:59;;;;;;;10.33;4.03;;;;;;;10.05;100.00;101345.13;2089345;28;20029;-63
2022/01/02 04:46:00;;;;;;;11.68;3.83;;;;;;;10.04;100.00;101340.84;2089530;28;20453;-63
2022/01/02 04:47:00;;;;;;;10.80;4.40;;;;;;;10.04;100.00;101335.63;2098289;28;20020;-62
2022/01/02 04:48:01;;;;;;;8.32;5.07;;;;;;;10.03;100.00;101336.50;2098258;28;20379;-62
2022/01/02 04:49:01;;;;;;;13.13;4.10;;;;;;;10.05;100.00;101339.91;2098343;28;20027;-62
2022/01/02 04:50:04;;;;;;;12.17;3.80;;;;;;;10.03;100.00;101328.66;2098220;28;20025;-65
2022/01/02 04:51:04;;;;;;;10.82;3.83;;;;;;;10.07;100.00;101333.78;2098299;28;20051;-63
2022/01/02 04:52:04;;;;;;;10.73;4.37;;;;;;;10.04;100.00;101327.78;2098262;28;20025;-63
2022/01/02 04:53:05;;;;;;;10.87;3.70;;;;;;;10.03;100.00;101333.06;2098238;28;20031;-62